createdAt,value
2019-06-27T00:00:18.350Z,16.88
2019-06-27T00:01:18.320Z,16.87
2019-06-27T00:02:18.307Z,16.88
2019-06-27T00:03:18.323Z,16.84
2019-06-27T00:04:18.295Z,16.85
2019-06-27T00:05:18.279Z,16.82
2019-06-27T00:06:18.292Z,16.80
2019-06-27T00:07:18.259Z,16.75
2019-06-27T00:08:18.275Z,16.85
2019-06-27T00:09:18.254Z,16.84
2019-06-27T00:10:18.225Z,16.75
2019-06-27T00:11:18.215Z,16.81
2019-06-27T00:12:18.265Z,16.65
2019-06-27T00:13:18.206Z,16.72
2019-06-27T00:14:18.177Z,16.73
2019-06-27T00:15:18.195Z,16.60
2019-06-27T00:16:18.167Z,16.63
2019-06-27T00:17:18.152Z,16.65
2019-06-27T00:18:18.153Z,16.55
2019-06-27T00:19:18.123Z,16.65
2019-06-27T00:20:18.117Z,16.67
2019-06-27T00:21:18.100Z,16.72
2019-06-27T00:22:18.102Z,16.65
2019-06-27T00:23:18.096Z,16.54
2019-06-27T00:24:18.064Z,16.60
2019-06-27T00:25:18.069Z,16.55
2019-06-27T00:26:18.060Z,16.59
2019-06-27T00:27:18.055Z,16.60
2019-06-27T00:28:18.036Z,16.60
2019-06-27T00:29:18.018Z,16.65
2019-06-27T00:30:18.203Z,16.70
2019-06-27T00:31:18.002Z,16.70
2019-06-27T00:32:17.987Z,16.65
2019-06-27T00:33:17.992Z,16.73
2019-06-27T00:34:17.954Z,16.69
2019-06-27T00:35:17.938Z,16.69
2019-06-27T00:36:17.944Z,16.67
2019-06-27T00:37:17.929Z,16.69
2019-06-27T00:38:17.932Z,16.78
2019-06-27T00:39:17.916Z,16.63
2019-06-27T00:40:17.901Z,16.78
2019-06-27T00:41:17.895Z,16.65
2019-06-27T00:42:17.869Z,16.66
2019-06-27T00:43:17.863Z,16.66
2019-06-27T00:44:17.874Z,16.66
2019-06-27T00:45:17.839Z,16.69
2019-06-27T00:46:17.831Z,16.70
2019-06-27T00:47:17.810Z,16.67
2019-06-27T00:48:17.808Z,16.65
2019-06-27T00:49:17.805Z,16.59
2019-06-27T00:50:17.781Z,16.59
2019-06-27T00:51:17.771Z,16.59
2019-06-27T00:52:17.755Z,16.59
2019-06-27T00:53:17.746Z,16.65
2019-06-27T00:54:17.764Z,16.62
2019-06-27T00:55:17.738Z,16.66
2019-06-27T00:56:17.728Z,16.69
2019-06-27T00:57:17.724Z,16.70
2019-06-27T00:58:17.689Z,16.67
2019-06-27T00:59:17.700Z,16.65
2019-06-27T01:00:17.671Z,16.63
2019-06-27T01:01:17.659Z,16.59
2019-06-27T01:03:26.850Z,16.52
2019-06-27T01:04:27.847Z,16.50
2019-06-27T01:05:27.826Z,16.52
2019-06-27T01:06:27.796Z,16.48
2019-06-27T01:07:27.791Z,16.47
2019-06-27T01:08:27.775Z,16.47
2019-06-27T01:09:27.795Z,16.45
2019-06-27T01:10:27.773Z,16.42
2019-06-27T01:11:27.758Z,16.47
2019-06-27T01:12:27.740Z,16.40
2019-06-27T01:13:27.731Z,16.40
2019-06-27T01:14:27.735Z,16.47
2019-06-27T01:15:27.704Z,16.29
2019-06-27T01:16:27.721Z,16.42
2019-06-27T01:17:27.678Z,16.42
2019-06-27T01:18:27.683Z,16.47
2019-06-27T01:19:27.674Z,16.47
2019-06-27T01:20:27.647Z,16.44
2019-06-27T01:21:27.634Z,16.42
2019-06-27T01:22:27.642Z,16.44
2019-06-27T01:23:27.626Z,16.25
2019-06-27T01:24:27.651Z,16.34
2019-06-27T01:25:27.598Z,16.27
2019-06-27T01:26:27.589Z,16.29
2019-06-27T01:27:30.229Z,16.26
2019-06-27T01:28:27.567Z,16.33
2019-06-27T01:29:27.576Z,16.32
2019-06-27T01:30:27.562Z,16.37
2019-06-27T01:31:27.525Z,16.26
2019-06-27T01:32:28.082Z,16.22
2019-06-27T01:33:27.503Z,16.33
2019-06-27T01:34:27.516Z,16.33
2019-06-27T01:35:27.497Z,16.36
2019-06-27T01:36:27.471Z,16.23
2019-06-27T01:37:27.473Z,16.18
2019-06-27T01:38:27.463Z,16.17
2019-06-27T01:39:27.462Z,16.18
2019-06-27T01:40:27.446Z,16.18
2019-06-27T01:41:27.426Z,16.18
2019-06-27T01:42:27.417Z,16.18
2019-06-27T01:43:27.420Z,16.10
2019-06-27T01:44:27.413Z,16.25
2019-06-27T01:45:27.407Z,16.03
2019-06-27T01:46:27.365Z,16.14
2019-06-27T01:47:27.363Z,16.13
2019-06-27T01:48:27.349Z,16.14
2019-06-27T01:49:27.346Z,16.17
2019-06-27T01:50:27.354Z,16.16
2019-06-27T01:51:27.321Z,16.11
2019-06-27T01:52:27.306Z,16.18
2019-06-27T01:53:27.308Z,16.23
2019-06-27T01:54:27.289Z,16.16
2019-06-27T01:55:27.290Z,16.17
2019-06-27T01:56:27.268Z,16.11
2019-06-27T01:57:27.251Z,16.13
2019-06-27T01:58:27.240Z,16.18
2019-06-27T01:59:27.240Z,16.18
2019-06-27T02:00:27.240Z,16.13
2019-06-27T02:01:27.208Z,16.17
2019-06-27T02:02:27.201Z,16.14
2019-06-27T02:03:27.195Z,16.16
2019-06-27T02:04:27.173Z,16.16
2019-06-27T02:05:27.179Z,16.22
2019-06-27T02:06:27.157Z,16.27
2019-06-27T02:07:27.146Z,16.27
2019-06-27T02:08:27.126Z,16.32
2019-06-27T02:09:27.112Z,16.22
2019-06-27T02:10:27.121Z,16.18
2019-06-27T02:11:27.098Z,16.17
2019-06-27T02:12:27.099Z,16.23
2019-06-27T02:13:27.090Z,16.32
2019-06-27T02:14:27.109Z,16.26
2019-06-27T02:15:27.076Z,16.25
2019-06-27T02:16:27.060Z,16.23
2019-06-27T02:17:27.036Z,16.22
2019-06-27T02:18:27.011Z,16.16
2019-06-27T02:19:27.013Z,16.16
2019-06-27T02:20:27.000Z,16.17
2019-06-27T02:21:27.004Z,16.04
2019-06-27T02:22:26.983Z,16.04
2019-06-27T02:23:26.974Z,16.08
2019-06-27T02:24:26.959Z,16.13
2019-06-27T02:25:26.947Z,16.06
2019-06-27T02:26:26.975Z,16.06
2019-06-27T02:27:26.923Z,16.23
2019-06-27T02:28:26.903Z,16.13
2019-06-27T02:29:26.895Z,16.04
2019-06-27T02:30:26.909Z,16.14
2019-06-27T02:31:26.892Z,16.14
2019-06-27T02:32:26.874Z,16.13
2019-06-27T02:33:26.859Z,16.22
2019-06-27T02:34:26.858Z,16.17
2019-06-27T02:35:26.837Z,16.23
2019-06-27T02:36:26.837Z,16.23
2019-06-27T02:37:26.806Z,16.18
2019-06-27T02:38:26.808Z,16.18
2019-06-27T02:39:26.789Z,16.16
2019-06-27T02:40:26.795Z,16.14
2019-06-27T02:41:26.797Z,16.13
2019-06-27T02:42:26.753Z,16.11
2019-06-27T02:43:26.763Z,16.04
2019-06-27T02:44:26.736Z,16.06
2019-06-27T02:45:26.722Z,16.04
2019-06-27T02:46:26.862Z,15.86
2019-06-27T02:47:26.715Z,15.91
2019-06-27T02:48:26.690Z,15.91
2019-06-27T02:49:26.680Z,15.89
2019-06-27T02:50:26.687Z,15.81
2019-06-27T02:51:26.765Z,15.86
2019-06-27T02:52:26.676Z,15.86
2019-06-27T02:53:26.642Z,15.92
2019-06-27T02:54:26.622Z,15.85
2019-06-27T02:55:26.621Z,15.92
2019-06-27T02:56:26.600Z,15.95
2019-06-27T02:57:26.616Z,15.98
2019-06-27T02:58:31.633Z,15.96
2019-06-27T02:59:26.583Z,15.96
2019-06-27T03:00:26.572Z,15.91
2019-06-27T03:01:26.546Z,15.92
2019-06-27T03:02:26.566Z,15.91
2019-06-27T03:04:36.028Z,15.88
2019-06-27T03:05:37.010Z,15.88
2019-06-27T03:06:37.004Z,15.86
2019-06-27T03:07:37.023Z,15.84
2019-06-27T03:08:36.985Z,15.80
2019-06-27T03:09:36.966Z,15.80
2019-06-27T03:10:36.969Z,15.81
2019-06-27T03:11:36.964Z,15.78
2019-06-27T03:12:36.976Z,15.92
2019-06-27T03:13:36.931Z,15.86
2019-06-27T03:14:36.926Z,15.86
2019-06-27T03:15:36.903Z,15.86
2019-06-27T03:16:36.901Z,15.84
2019-06-27T03:17:36.911Z,15.84
2019-06-27T03:18:36.894Z,15.89
2019-06-27T03:19:36.869Z,15.84
2019-06-27T03:20:36.849Z,15.84
2019-06-27T03:21:36.853Z,15.86
2019-06-27T03:22:37.004Z,15.81
2019-06-27T03:23:36.910Z,15.84
2019-06-27T03:24:36.816Z,15.84
2019-06-27T03:25:36.810Z,15.81
2019-06-27T03:26:36.792Z,15.84
2019-06-27T03:27:36.792Z,15.93
2019-06-27T03:28:50.918Z,15.84
2019-06-27T03:29:36.751Z,15.84
2019-06-27T03:30:36.748Z,15.77
2019-06-27T03:31:36.738Z,15.86
2019-06-27T03:32:36.742Z,15.80
2019-06-27T03:33:36.704Z,15.77
2019-06-27T03:34:36.705Z,15.80
2019-06-27T03:35:36.686Z,15.76
2019-06-27T03:36:36.681Z,15.73
2019-06-27T03:37:36.680Z,15.76
2019-06-27T03:38:36.656Z,15.70
2019-06-27T03:39:36.650Z,15.70
2019-06-27T03:40:36.638Z,15.74
2019-06-27T03:41:36.627Z,15.67
2019-06-27T03:42:36.624Z,15.66
2019-06-27T03:43:36.596Z,15.78
2019-06-27T03:44:36.610Z,15.78
2019-06-27T03:45:36.580Z,15.80
2019-06-27T03:46:36.577Z,15.85
2019-06-27T03:47:36.583Z,15.77
2019-06-27T03:48:36.550Z,15.76
2019-06-27T03:49:36.531Z,15.76
2019-06-27T03:50:36.518Z,15.77
2019-06-27T03:51:36.508Z,15.78
2019-06-27T03:52:36.524Z,15.85
2019-06-27T03:53:36.488Z,15.81
2019-06-27T03:54:36.470Z,15.78
2019-06-27T03:55:36.473Z,15.80
2019-06-27T03:56:36.462Z,15.78
2019-06-27T03:57:36.470Z,15.98
2019-06-27T03:58:36.461Z,15.91
2019-06-27T03:59:36.433Z,15.88
2019-06-27T04:00:36.415Z,15.80
2019-06-27T04:01:36.398Z,15.78
2019-06-27T04:02:36.526Z,15.80
2019-06-27T04:03:36.385Z,15.81
2019-06-27T04:04:36.365Z,15.85
2019-06-27T04:05:36.370Z,15.81
2019-06-27T04:06:36.347Z,15.95
2019-06-27T04:07:36.361Z,15.92
2019-06-27T04:08:36.340Z,15.99
2019-06-27T04:09:36.315Z,15.99
2019-06-27T04:10:36.311Z,16.06
2019-06-27T04:11:36.296Z,16.03
2019-06-27T04:12:36.398Z,16.06
2019-06-27T04:13:36.271Z,15.89
2019-06-27T04:14:36.261Z,15.93
2019-06-27T04:15:36.259Z,15.91
2019-06-27T04:16:36.231Z,15.95
2019-06-27T04:17:36.217Z,15.93
2019-06-27T04:18:36.222Z,15.95
2019-06-27T04:19:36.192Z,15.89
2019-06-27T04:20:36.184Z,15.88
2019-06-27T04:21:36.179Z,15.84
2019-06-27T04:22:36.161Z,15.95
2019-06-27T04:23:36.166Z,15.88
2019-06-27T04:24:36.136Z,16.04
2019-06-27T04:25:36.152Z,15.98
2019-06-27T04:26:36.133Z,16.07
2019-06-27T04:27:36.101Z,16.03
2019-06-27T04:28:36.118Z,16.06
2019-06-27T04:29:36.134Z,16.17
2019-06-27T04:30:36.073Z,16.16
2019-06-27T04:31:36.071Z,16.18
2019-06-27T04:32:36.052Z,16.22
2019-06-27T04:33:36.057Z,16.01
2019-06-27T04:34:36.039Z,16.13
2019-06-27T04:35:36.025Z,16.16
2019-06-27T04:36:36.015Z,16.08
2019-06-27T04:37:36.005Z,16.11
2019-06-27T04:38:36.004Z,16.06
2019-06-27T04:39:35.969Z,16.07
2019-06-27T04:40:35.966Z,16.07
2019-06-27T04:41:35.951Z,15.91
2019-06-27T04:42:35.938Z,15.95
2019-06-27T04:43:35.956Z,15.96
2019-06-27T04:44:35.921Z,15.81
2019-06-27T04:45:35.911Z,15.84
2019-06-27T04:46:35.907Z,15.89
2019-06-27T04:47:35.877Z,15.86
2019-06-27T04:48:35.898Z,15.85
2019-06-27T04:49:35.867Z,15.78
2019-06-27T04:50:35.851Z,15.80
2019-06-27T04:51:35.841Z,15.85
2019-06-27T04:52:35.819Z,15.76
2019-06-27T04:53:35.837Z,15.81
2019-06-27T04:54:35.800Z,15.84
2019-06-27T04:55:35.875Z,15.89
2019-06-27T04:56:35.785Z,16.10
2019-06-27T04:57:35.772Z,16.32
2019-06-27T04:58:35.771Z,16.51
2019-06-27T04:59:51.939Z,16.70
2019-06-27T05:00:35.742Z,16.72
2019-06-27T05:01:35.732Z,16.73
2019-06-27T05:02:35.725Z,16.91
2019-06-27T05:03:35.735Z,16.92
2019-06-27T05:05:44.893Z,17.06
2019-06-27T05:06:45.865Z,17.21
2019-06-27T05:07:45.853Z,16.99
2019-06-27T05:08:45.864Z,16.91
2019-06-27T05:09:45.852Z,16.63
2019-06-27T05:10:45.843Z,16.62
2019-06-27T05:11:45.822Z,16.65
2019-06-27T05:12:45.812Z,16.50
2019-06-27T05:13:45.826Z,16.67
2019-06-27T05:14:45.788Z,16.70
2019-06-27T05:15:45.779Z,16.85
2019-06-27T05:16:45.751Z,16.82
2019-06-27T05:17:45.742Z,16.75
2019-06-27T05:18:45.767Z,16.78
2019-06-27T05:19:45.731Z,16.81
2019-06-27T05:20:45.708Z,16.80
2019-06-27T05:21:45.711Z,16.72
2019-06-27T05:22:45.688Z,16.62
2019-06-27T05:23:45.697Z,16.47
2019-06-27T05:24:45.695Z,16.54
2019-06-27T05:25:45.657Z,16.44
2019-06-27T05:26:45.663Z,16.69
2019-06-27T05:27:45.644Z,16.82
2019-06-27T05:28:45.649Z,16.77
2019-06-27T05:29:45.607Z,16.90
2019-06-27T05:30:45.600Z,16.77
2019-06-27T05:31:45.599Z,16.67
2019-06-27T05:32:45.600Z,16.63
2019-06-27T05:33:45.611Z,16.78
2019-06-27T05:34:45.573Z,16.88
2019-06-27T05:35:45.550Z,16.77
2019-06-27T05:36:45.545Z,16.96
2019-06-27T05:37:45.520Z,17.12
2019-06-27T05:38:45.529Z,16.99
2019-06-27T05:39:45.494Z,17.02
2019-06-27T05:40:45.490Z,16.95
2019-06-27T05:41:45.478Z,16.92
2019-06-27T05:42:45.471Z,17.02
2019-06-27T05:43:45.463Z,17.28
2019-06-27T05:44:45.472Z,17.35
2019-06-27T05:45:45.470Z,17.40
2019-06-27T05:46:45.436Z,17.36
2019-06-27T05:47:45.517Z,17.28
2019-06-27T05:48:45.413Z,17.15
2019-06-27T05:49:45.401Z,17.03
2019-06-27T05:50:45.468Z,17.03
2019-06-27T05:51:45.423Z,17.03
2019-06-27T05:52:45.381Z,17.03
2019-06-27T05:53:45.793Z,17.15
2019-06-27T05:54:45.455Z,17.24
2019-06-27T05:55:45.373Z,17.12
2019-06-27T05:56:45.307Z,17.21
2019-06-27T05:57:45.355Z,17.30
2019-06-27T05:58:45.321Z,17.38
2019-06-27T05:59:45.311Z,17.54
2019-06-27T06:00:45.277Z,17.68
2019-06-27T06:01:45.331Z,17.63
2019-06-27T06:02:45.256Z,17.60
2019-06-27T06:03:45.240Z,17.54
2019-06-27T06:04:45.235Z,17.63
2019-06-27T06:05:45.247Z,17.76
2019-06-27T06:06:45.213Z,17.83
2019-06-27T06:07:45.200Z,17.79
2019-06-27T06:08:45.188Z,17.87
2019-06-27T06:09:45.195Z,17.76
2019-06-27T06:10:45.165Z,17.79
2019-06-27T06:11:45.148Z,17.91
2019-06-27T06:12:45.141Z,18.01
2019-06-27T06:13:45.157Z,18.09
2019-06-27T06:14:45.155Z,17.77
2019-06-27T06:15:45.148Z,17.89
2019-06-27T06:16:45.111Z,17.76
2019-06-27T06:17:45.079Z,17.73
2019-06-27T06:18:45.064Z,17.55
2019-06-27T06:19:45.105Z,17.42
2019-06-27T06:20:45.073Z,17.42
2019-06-27T06:21:45.049Z,17.49
2019-06-27T06:22:45.049Z,17.66
2019-06-27T06:23:45.041Z,17.77
2019-06-27T06:24:45.084Z,17.84
2019-06-27T06:25:45.020Z,17.83
2019-06-27T06:26:45.009Z,17.86
2019-06-27T06:27:45.116Z,17.80
2019-06-27T06:28:44.980Z,17.73
2019-06-27T06:29:45.005Z,17.63
2019-06-27T06:30:45.440Z,17.63
2019-06-27T06:31:44.933Z,17.68
2019-06-27T06:32:44.926Z,17.80
2019-06-27T06:33:44.917Z,17.95
2019-06-27T06:34:44.900Z,18.02
2019-06-27T06:35:44.933Z,18.05
2019-06-27T06:36:44.885Z,18.11
2019-06-27T06:37:44.859Z,18.19
2019-06-27T06:38:44.892Z,18.16
2019-06-27T06:39:44.853Z,17.76
2019-06-27T06:40:44.884Z,17.77
2019-06-27T06:41:44.820Z,17.74
2019-06-27T06:42:44.832Z,17.74
2019-06-27T06:43:44.794Z,17.57
2019-06-27T06:44:44.794Z,17.68
2019-06-27T06:45:44.790Z,17.80
2019-06-27T06:46:44.792Z,17.83
2019-06-27T06:47:44.879Z,18.01
2019-06-27T06:48:44.840Z,18.26
2019-06-27T06:49:44.722Z,18.35
2019-06-27T06:50:44.748Z,18.36
2019-06-27T06:51:44.714Z,18.50
2019-06-27T06:52:44.689Z,18.47
2019-06-27T06:53:44.715Z,18.29
2019-06-27T06:54:44.706Z,18.13
2019-06-27T06:55:44.680Z,18.23
2019-06-27T06:56:44.681Z,18.39
2019-06-27T06:57:44.665Z,18.34
2019-06-27T06:58:44.642Z,18.34
2019-06-27T06:59:44.669Z,18.26
2019-06-27T07:01:00.338Z,17.99
2019-06-27T07:01:45.758Z,17.92
2019-06-27T07:02:44.668Z,17.99
2019-06-27T07:03:44.609Z,18.07
2019-06-27T07:04:44.580Z,18.17
2019-06-27T07:06:53.851Z,17.71
2019-06-27T07:07:54.778Z,17.38
2019-06-27T07:08:54.777Z,17.60
2019-06-27T07:09:54.871Z,17.71
2019-06-27T07:10:54.842Z,17.43
2019-06-27T07:11:54.755Z,17.32
2019-06-27T07:12:54.781Z,17.62
2019-06-27T07:13:54.761Z,17.89
2019-06-27T07:14:54.705Z,18.14
2019-06-27T07:15:54.718Z,18.32
2019-06-27T07:16:54.735Z,18.56
2019-06-27T07:17:54.669Z,18.60
2019-06-27T07:18:54.705Z,18.07
2019-06-27T07:19:57.462Z,18.14
2019-06-27T07:20:54.668Z,18.31
2019-06-27T07:21:54.629Z,18.41
2019-06-27T07:22:54.629Z,18.64
2019-06-27T07:23:54.599Z,18.68
2019-06-27T07:24:54.601Z,18.75
2019-06-27T07:25:54.606Z,18.89
2019-06-27T07:26:54.617Z,18.82
2019-06-27T07:27:54.564Z,18.84
2019-06-27T07:28:54.567Z,18.62
2019-06-27T07:29:54.548Z,18.65
2019-06-27T07:30:54.597Z,18.60
2019-06-27T07:31:54.523Z,18.64
2019-06-27T07:32:54.522Z,18.47
2019-06-27T07:33:54.493Z,18.29
2019-06-27T07:34:54.509Z,18.05
2019-06-27T07:35:54.480Z,18.11
2019-06-27T07:36:54.473Z,18.35
2019-06-27T07:37:54.572Z,18.41
2019-06-27T07:38:54.435Z,18.47
2019-06-27T07:39:54.413Z,18.69
2019-06-27T07:40:54.441Z,18.39
2019-06-27T07:41:54.394Z,18.51
2019-06-27T07:42:54.459Z,18.44
2019-06-27T07:43:54.383Z,18.44
2019-06-27T07:44:54.425Z,18.54
2019-06-27T07:45:54.475Z,18.53
2019-06-27T07:46:54.364Z,18.57
2019-06-27T07:47:54.331Z,18.60
2019-06-27T07:48:54.311Z,18.50
2019-06-27T07:49:54.299Z,18.59
2019-06-27T07:50:54.319Z,18.42
2019-06-27T07:51:54.427Z,18.50
2019-06-27T07:52:54.273Z,18.64
2019-06-27T07:53:54.305Z,18.89
2019-06-27T07:54:54.244Z,19.06
2019-06-27T07:55:54.333Z,18.65
2019-06-27T07:56:55.168Z,18.60
2019-06-27T07:57:54.212Z,18.41
2019-06-27T07:58:54.215Z,18.65
2019-06-27T07:59:54.536Z,18.99
2019-06-27T08:00:54.205Z,19.30
2019-06-27T08:01:54.251Z,19.24
2019-06-27T08:02:54.223Z,19.23
2019-06-27T08:03:54.152Z,18.50
2019-06-27T08:04:54.143Z,18.62
2019-06-27T08:05:54.127Z,18.49
2019-06-27T08:06:54.163Z,18.04
2019-06-27T08:07:55.183Z,18.17
2019-06-27T08:08:55.194Z,18.41
2019-06-27T08:09:54.993Z,18.86
2019-06-27T08:10:54.635Z,19.23
2019-06-27T08:11:54.673Z,19.58
2019-06-27T08:12:54.067Z,19.21
2019-06-27T08:13:54.083Z,18.65
2019-06-27T08:14:54.041Z,18.66
2019-06-27T08:15:54.170Z,18.99
2019-06-27T08:16:54.180Z,19.06
2019-06-27T08:17:54.014Z,18.87
2019-06-27T08:18:54.012Z,18.83
2019-06-27T08:19:53.979Z,18.50
2019-06-27T08:20:53.980Z,18.53
2019-06-27T08:21:53.976Z,18.76
2019-06-27T08:22:54.050Z,19.20
2019-06-27T08:23:53.938Z,19.47
2019-06-27T08:24:53.942Z,19.68
2019-06-27T08:25:53.911Z,19.64
2019-06-27T08:26:53.988Z,19.27
2019-06-27T08:27:53.902Z,19.31
2019-06-27T08:28:53.868Z,19.31
2019-06-27T08:29:53.996Z,19.50
2019-06-27T08:30:53.909Z,19.58
2019-06-27T08:31:53.836Z,19.64
2019-06-27T08:32:53.850Z,19.85
2019-06-27T08:33:53.809Z,20.07
2019-06-27T08:34:53.885Z,20.22
2019-06-27T08:35:53.920Z,20.25
2019-06-27T08:36:53.833Z,19.97
2019-06-27T08:37:53.822Z,19.86
2019-06-27T08:38:54.213Z,19.80
2019-06-27T08:39:53.760Z,19.82
2019-06-27T08:40:53.816Z,19.90
2019-06-27T08:41:53.762Z,19.17
2019-06-27T08:42:53.768Z,18.78
2019-06-27T08:43:53.793Z,19.05
2019-06-27T08:44:53.698Z,19.21
2019-06-27T08:45:53.706Z,19.30
2019-06-27T08:46:53.695Z,19.24
2019-06-27T08:47:53.691Z,19.28
2019-06-27T08:48:53.687Z,19.49
2019-06-27T08:49:53.848Z,19.79
2019-06-27T08:50:53.635Z,20.04
2019-06-27T08:51:53.610Z,20.26
2019-06-27T08:52:53.636Z,20.61
2019-06-27T08:53:53.653Z,20.61
2019-06-27T08:54:53.624Z,20.42
2019-06-27T08:55:53.660Z,20.37
2019-06-27T08:56:53.632Z,20.37
2019-06-27T08:57:53.761Z,20.57
2019-06-27T08:58:53.603Z,20.56
2019-06-27T08:59:54.550Z,20.73
2019-06-27T09:00:53.560Z,20.88
2019-06-27T09:02:07.530Z,20.90
2019-06-27T09:02:53.636Z,20.72
2019-06-27T09:03:53.642Z,20.68
2019-06-27T09:04:53.477Z,20.82
2019-06-27T09:05:53.470Z,20.98
2019-06-27T09:08:03.349Z,20.94
2019-06-27T09:09:04.015Z,20.90
2019-06-27T09:10:03.967Z,20.76
2019-06-27T09:11:04.073Z,20.71
2019-06-27T09:12:03.934Z,20.94
2019-06-27T09:13:04.174Z,20.63
2019-06-27T09:14:04.024Z,20.50
2019-06-27T09:15:03.984Z,20.60
2019-06-27T09:16:03.959Z,20.75
2019-06-27T09:17:03.886Z,20.51
2019-06-27T09:18:03.905Z,20.63
2019-06-27T09:19:04.137Z,20.81
2019-06-27T09:20:03.899Z,21.15
2019-06-27T09:21:03.863Z,21.42
2019-06-27T09:22:03.842Z,21.36
2019-06-27T09:23:03.863Z,21.21
2019-06-27T09:24:03.857Z,21.34
2019-06-27T09:25:03.837Z,21.36
2019-06-27T09:26:03.812Z,21.40
2019-06-27T09:27:03.776Z,20.87
2019-06-27T09:28:03.792Z,20.73
2019-06-27T09:29:03.854Z,20.64
2019-06-27T09:30:03.766Z,20.91
2019-06-27T09:31:03.751Z,21.34
2019-06-27T09:32:03.762Z,21.46
2019-06-27T09:33:03.755Z,21.36
2019-06-27T09:34:03.722Z,21.01
2019-06-27T09:35:03.717Z,20.90
2019-06-27T09:36:03.724Z,20.97
2019-06-27T09:37:03.699Z,21.12
2019-06-27T09:38:03.650Z,21.08
2019-06-27T09:39:03.674Z,21.03
2019-06-27T09:40:03.663Z,20.91
2019-06-27T09:41:03.683Z,20.93
2019-06-27T09:42:03.653Z,21.00
2019-06-27T09:43:03.624Z,20.90
2019-06-27T09:44:03.614Z,20.85
2019-06-27T09:45:03.872Z,20.76
2019-06-27T09:46:03.637Z,20.60
2019-06-27T09:47:05.120Z,20.76
2019-06-27T09:48:03.540Z,21.26
2019-06-27T09:49:03.606Z,21.68
2019-06-27T09:50:03.549Z,21.68
2019-06-27T09:51:03.566Z,21.11
2019-06-27T09:52:03.512Z,21.13
2019-06-27T09:53:03.498Z,21.56
2019-06-27T09:54:03.469Z,21.58
2019-06-27T09:55:03.552Z,21.30
2019-06-27T09:56:03.540Z,21.01
2019-06-27T09:57:03.531Z,21.13
2019-06-27T09:58:03.445Z,21.13
2019-06-27T09:59:03.427Z,21.33
2019-06-27T10:00:03.428Z,21.30
2019-06-27T10:01:05.875Z,21.34
2019-06-27T10:02:03.484Z,21.71
2019-06-27T10:03:03.440Z,21.83
2019-06-27T10:04:03.378Z,21.70
2019-06-27T10:05:03.410Z,21.43
2019-06-27T10:06:03.363Z,20.85
2019-06-27T10:07:03.352Z,21.00
2019-06-27T10:08:03.309Z,20.88
2019-06-27T10:09:03.303Z,20.87
2019-06-27T10:10:03.347Z,20.85
2019-06-27T10:11:03.533Z,20.83
2019-06-27T10:12:03.275Z,21.06
2019-06-27T10:13:03.341Z,21.24
2019-06-27T10:14:03.315Z,21.11
2019-06-27T10:15:03.297Z,21.00
2019-06-27T10:16:03.279Z,20.85
2019-06-27T10:17:03.253Z,21.08
2019-06-27T10:18:03.284Z,21.36
2019-06-27T10:19:03.223Z,21.63
2019-06-27T10:20:03.790Z,21.38
2019-06-27T10:21:03.179Z,21.48
2019-06-27T10:22:03.159Z,21.74
2019-06-27T10:23:03.200Z,21.96
2019-06-27T10:24:03.153Z,22.05
2019-06-27T10:25:03.184Z,22.42
2019-06-27T10:26:03.208Z,22.60
2019-06-27T10:27:03.113Z,22.17
2019-06-27T10:28:03.214Z,22.08
2019-06-27T10:29:03.129Z,22.29
2019-06-27T10:30:03.155Z,22.61
2019-06-27T10:31:03.132Z,22.93
2019-06-27T10:32:03.082Z,23.18
2019-06-27T10:33:03.160Z,22.63
2019-06-27T10:34:03.033Z,21.96
2019-06-27T10:35:03.205Z,21.96
2019-06-27T10:36:03.056Z,21.77
2019-06-27T10:37:03.135Z,22.09
2019-06-27T10:38:02.998Z,22.48
2019-06-27T10:39:03.015Z,22.57
2019-06-27T10:40:02.983Z,22.85
2019-06-27T10:41:03.057Z,22.42
2019-06-27T10:42:02.988Z,22.56
2019-06-27T10:43:02.974Z,22.51
2019-06-27T10:44:02.969Z,22.60
2019-06-27T10:45:03.003Z,22.61
2019-06-27T10:46:03.127Z,22.94
2019-06-27T10:47:02.898Z,23.23
2019-06-27T10:48:02.901Z,23.29
2019-06-27T10:49:02.995Z,23.07
2019-06-27T10:50:02.926Z,22.99
2019-06-27T10:51:02.994Z,23.21
2019-06-27T10:52:03.884Z,23.25
2019-06-27T10:53:02.889Z,23.23
2019-06-27T10:54:02.957Z,23.16
2019-06-27T10:55:02.874Z,23.11
2019-06-27T10:56:02.887Z,23.03
2019-06-27T10:57:02.898Z,22.61
2019-06-27T10:58:02.816Z,22.54
2019-06-27T10:59:02.789Z,22.76
2019-06-27T11:00:02.834Z,23.22
2019-06-27T11:01:02.767Z,23.45
2019-06-27T11:02:02.733Z,23.72
2019-06-27T11:03:14.828Z,23.90
2019-06-27T11:04:02.723Z,24.14
2019-06-27T11:05:02.727Z,24.24
2019-06-27T11:06:02.857Z,24.21
2019-06-27T11:07:02.736Z,24.15
2019-06-27T11:09:14.352Z,23.67
2019-06-27T11:10:12.831Z,23.34
2019-06-27T11:11:12.834Z,22.99
2019-06-27T11:12:12.810Z,23.34
2019-06-27T11:13:12.800Z,23.74
2019-06-27T11:14:13.021Z,23.97
2019-06-27T11:15:12.845Z,24.30
2019-06-27T11:16:12.825Z,24.33
2019-06-27T11:17:12.761Z,24.42
2019-06-27T11:18:12.765Z,24.21
2019-06-27T11:19:12.732Z,24.02
2019-06-27T11:20:15.129Z,23.75
2019-06-27T11:21:13.998Z,23.87
2019-06-27T11:22:12.700Z,24.26
2019-06-27T11:23:12.682Z,24.26
2019-06-27T11:24:12.681Z,24.37
2019-06-27T11:25:12.673Z,24.79
2019-06-27T11:26:12.674Z,24.70
2019-06-27T11:27:12.652Z,24.70
2019-06-27T11:28:12.661Z,24.64
2019-06-27T11:29:12.631Z,24.68
2019-06-27T11:30:12.637Z,24.66
2019-06-27T11:31:12.602Z,24.19
2019-06-27T11:32:12.638Z,24.39
2019-06-27T11:33:12.592Z,24.37
2019-06-27T11:34:12.576Z,24.26
2019-06-27T11:35:12.572Z,23.84
2019-06-27T11:36:12.564Z,23.63
2019-06-27T11:37:12.557Z,23.97
2019-06-27T11:38:12.523Z,24.29
2019-06-27T11:39:12.539Z,24.41
2019-06-27T11:40:12.679Z,24.36
2019-06-27T11:41:12.495Z,24.34
2019-06-27T11:42:12.584Z,24.37
2019-06-27T11:43:12.486Z,24.51
2019-06-27T11:44:12.472Z,24.63
2019-06-27T11:45:12.455Z,24.14
2019-06-27T11:46:12.461Z,24.04
2019-06-27T11:47:12.485Z,24.26
2019-06-27T11:48:12.421Z,24.14
2019-06-27T11:49:12.453Z,24.36
2019-06-27T11:50:12.424Z,24.68
2019-06-27T11:51:12.397Z,24.55
2019-06-27T11:52:12.391Z,24.67
2019-06-27T11:53:12.368Z,24.70
2019-06-27T11:54:12.354Z,24.94
2019-06-27T11:55:12.348Z,24.64
2019-06-27T11:56:12.378Z,24.27
2019-06-27T11:57:12.368Z,24.34
2019-06-27T11:58:12.335Z,24.49
2019-06-27T11:59:12.321Z,24.66
2019-06-27T12:00:12.313Z,24.75
2019-06-27T12:01:12.307Z,24.82
2019-06-27T12:02:12.323Z,24.82
2019-06-27T12:03:12.260Z,24.71
2019-06-27T12:04:12.329Z,24.93
2019-06-27T12:05:12.251Z,24.92
2019-06-27T12:06:12.239Z,24.37
2019-06-27T12:07:12.236Z,24.46
2019-06-27T12:08:12.205Z,24.16
2019-06-27T12:09:12.202Z,23.99
2019-06-27T12:10:12.220Z,24.16
2019-06-27T12:11:12.189Z,24.08
2019-06-27T12:12:12.185Z,24.44
2019-06-27T12:13:12.166Z,24.41
2019-06-27T12:14:12.155Z,24.77
2019-06-27T12:15:12.145Z,24.86
2019-06-27T12:16:12.140Z,24.80
2019-06-27T12:17:12.136Z,25.12
2019-06-27T12:18:12.146Z,24.89
2019-06-27T12:19:12.623Z,24.93
2019-06-27T12:20:12.084Z,24.93
2019-06-27T12:22:20.797Z,25.08
2019-06-27T12:23:21.789Z,25.24
2019-06-27T12:24:21.752Z,25.30
2019-06-27T12:25:21.742Z,25.31
2019-06-27T12:26:21.727Z,25.36
2019-06-27T12:27:21.715Z,25.42
2019-06-27T12:28:21.727Z,25.45
2019-06-27T12:29:21.701Z,25.63
2019-06-27T12:30:21.710Z,25.57
2019-06-27T12:31:21.670Z,24.90
2019-06-27T12:32:21.670Z,24.52
2019-06-27T12:33:21.674Z,25.08
2019-06-27T12:34:21.699Z,25.45
2019-06-27T12:35:21.646Z,25.60
2019-06-27T12:36:21.651Z,25.30
2019-06-27T12:37:21.598Z,25.16
2019-06-27T12:38:21.610Z,25.08
2019-06-27T12:39:21.595Z,24.79
2019-06-27T12:40:21.588Z,24.41
2019-06-27T12:41:21.567Z,24.51
2019-06-27T12:42:32.091Z,24.66
2019-06-27T12:43:21.562Z,24.93
2019-06-27T12:45:30.221Z,25.20
2019-06-27T12:46:31.244Z,25.27
2019-06-27T12:47:31.188Z,25.23
2019-06-27T12:48:31.175Z,24.77
2019-06-27T12:49:49.814Z,24.70
2019-06-27T12:50:31.157Z,24.83
2019-06-27T12:51:31.138Z,25.22
2019-06-27T12:52:31.138Z,25.53
2019-06-27T12:53:31.126Z,25.66
2019-06-27T12:54:31.253Z,25.96
2019-06-27T12:55:31.115Z,26.01
2019-06-27T12:56:31.093Z,25.98
2019-06-27T12:57:31.076Z,26.01
2019-06-27T12:58:32.013Z,26.03
2019-06-27T12:59:31.495Z,26.34
2019-06-27T13:00:31.976Z,26.46
2019-06-27T13:01:31.973Z,26.38